Mareb Airport


Codes: OYMB/MYN
Name: Mareb Airport
City: Mareb
Country: Yemen
Elevation: 3300 ft.

Photos at Mareb Airport


   Photos courtesy of SpottingLog. You can add your own sightings and photos by signing up for a free trial today.



No photos found.

Weather at Mareb Airport


Time (UTC)DescriptionTempratureWindCloud coverageVisibilityPressureHumidity
21-Feb-2024 03:00Clear Sky21°C4 mph, NW3%10000m1015hPa45%
21-Feb-2024 06:00Clear Sky23°C4 mph, N1%10000m1016hPa39%
21-Feb-2024 09:00Clear Sky28°C4 mph, NE0%10000m1014hPa26%
21-Feb-2024 12:00Clear Sky31°C9 mph, NE5%10000m1011hPa20%
21-Feb-2024 15:00Few Clouds29°C11 mph, NE13%10000m1012hPa23%
21-Feb-2024 18:00Scattered Clouds25°C4 mph, N30%10000m1015hPa30%
21-Feb-2024 21:00Overcast Clouds24°C4 mph, NW85%10000m1015hPa33%
22-Feb-2024 00:00Overcast Clouds21°C9 mph, NW93%10000m1015hPa39%
22-Feb-2024 03:00Few Clouds19°C9 mph, NW13%10000m1018hPa41%
22-Feb-2024 06:00Clear Sky23°C7 mph, NW10%10000m1019hPa29%
22-Feb-2024 09:00Few Clouds28°C7 mph, NE23%10000m1015hPa26%
22-Feb-2024 12:00Broken Clouds30°C9 mph, E61%10000m1012hPa24%
22-Feb-2024 15:00Few Clouds28°C9 mph, E24%10000m1013hPa27%
22-Feb-2024 18:00Few Clouds25°C4 mph, NE13%10000m1015hPa33%
22-Feb-2024 21:00Overcast Clouds23°C2 mph, S99%10000m1015hPa36%
23-Feb-2024 00:00Overcast Clouds20°C7 mph, N99%10000m1016hPa40%
23-Feb-2024 03:00Broken Clouds19°C7 mph, NW80%10000m1018hPa40%
23-Feb-2024 06:00Overcast Clouds23°C2 mph, N90%10000m1019hPa33%
23-Feb-2024 09:00Overcast Clouds28°C7 mph, E100%10000m1016hPa26%
23-Feb-2024 12:00Overcast Clouds31°C9 mph, E97%10000m1012hPa19%
23-Feb-2024 15:00Broken Clouds28°C9 mph, E68%10000m1014hPa21%
23-Feb-2024 18:00Broken Clouds24°C4 mph, E84%10000m1016hPa25%
23-Feb-2024 21:00Overcast Clouds23°C4 mph, SE100%10000m1015hPa26%
24-Feb-2024 00:00Overcast Clouds21°C2 mph, N100%10000m1015hPa29%
24-Feb-2024 03:00Overcast Clouds19°C2 mph, N100%10000m1017hPa33%
24-Feb-2024 06:00Broken Clouds24°C2 mph, NE78%10000m1018hPa29%
24-Feb-2024 09:00Scattered Clouds30°C4 mph, E25%10000m1014hPa19%
24-Feb-2024 12:00Few Clouds32°C9 mph, E14%10000m1010hPa14%
24-Feb-2024 15:00Few Clouds29°C11 mph, E23%10000m1011hPa16%
24-Feb-2024 18:00Scattered Clouds24°C4 mph, E42%10000m1014hPa20%
24-Feb-2024 21:00Overcast Clouds23°C2 mph, SW90%10000m1013hPa28%
25-Feb-2024 00:00Broken Clouds21°C2 mph, W77%10000m1011hPa30%
25-Feb-2024 03:00Clear Sky20°C2 mph, SW9%10000m1013hPa34%
25-Feb-2024 06:00Clear Sky27°C0 mph, NW5%10000m1013hPa21%
25-Feb-2024 09:00Clear Sky32°C2 mph, NE10%10000m1009hPa15%
25-Feb-2024 12:00Scattered Clouds35°C4 mph, E25%10000m1005hPa10%
25-Feb-2024 15:00Few Clouds32°C9 mph, NE16%10000m1006hPa12%
25-Feb-2024 18:00Scattered Clouds26°C7 mph, NW37%10000m1010hPa38%
25-Feb-2024 21:00Few Clouds25°C11 mph, W23%10000m1010hPa40%
26-Feb-2024 00:00Few Clouds23°C9 mph, NW13%10000m1010hPa41%